createdAt,value
2018-04-06T00:00:44.897Z,91.80
2018-04-06T00:01:44.907Z,92.18
2018-04-06T00:02:44.937Z,92.38
2018-04-06T00:03:44.948Z,92.18
2018-04-06T00:04:44.965Z,92.09
2018-04-06T00:05:44.976Z,92.85
2018-04-06T00:06:45.001Z,92.85
2018-04-06T00:07:45.013Z,93.04
2018-04-06T00:08:45.037Z,92.38
2018-04-06T00:09:45.051Z,91.80
2018-04-06T00:10:45.066Z,91.61
2018-04-06T00:11:45.090Z,92.47
2018-04-06T00:12:45.101Z,91.99
2018-04-06T00:13:45.118Z,91.90
2018-04-06T00:14:45.138Z,91.99
2018-04-06T00:15:45.155Z,92.28
2018-04-06T00:16:45.177Z,92.18
2018-04-06T00:17:45.235Z,93.23
2018-04-06T00:18:45.202Z,91.99
2018-04-06T00:19:45.221Z,92.94
2018-04-06T00:20:45.246Z,93.99
2018-04-06T00:21:45.260Z,93.32
2018-04-06T00:22:45.275Z,93.04
2018-04-06T00:23:45.294Z,92.57
2018-04-06T00:24:45.305Z,91.99
2018-04-06T00:25:45.326Z,93.04
2018-04-06T00:26:45.352Z,92.94
2018-04-06T00:27:45.364Z,93.70
2018-04-06T00:28:45.381Z,93.70
2018-04-06T00:29:45.394Z,93.80
2018-04-06T00:30:45.416Z,94.27
2018-04-06T00:31:45.425Z,93.89
2018-04-06T00:32:45.443Z,93.70
2018-04-06T00:33:45.463Z,93.13
2018-04-06T00:34:45.480Z,93.70
2018-04-06T00:35:45.495Z,93.89
2018-04-06T00:36:45.514Z,92.85
2018-04-06T00:37:45.534Z,94.56
2018-04-06T00:38:45.549Z,94.37
2018-04-06T00:39:45.568Z,93.80
2018-04-06T00:40:45.580Z,93.70
2018-04-06T00:41:45.595Z,93.51
2018-04-06T00:42:45.615Z,93.99
2018-04-06T00:43:45.632Z,94.56
2018-04-06T00:44:45.654Z,94.27
2018-04-06T00:45:45.670Z,94.27
2018-04-06T00:46:45.691Z,94.18
2018-04-06T00:47:45.700Z,94.46
2018-04-06T00:48:45.720Z,94.18
2018-04-06T00:49:45.737Z,93.70
2018-04-06T00:50:45.753Z,93.89
2018-04-06T00:51:45.773Z,94.27
2018-04-06T00:52:45.783Z,94.74
2018-04-06T00:53:45.799Z,94.27
2018-04-06T00:54:45.818Z,94.60
2018-04-06T00:55:45.840Z,94.32
2018-04-06T00:56:45.853Z,94.42
2018-04-06T00:57:45.869Z,95.22
2018-04-06T00:58:45.892Z,94.51
2018-04-06T00:59:45.905Z,94.51
2018-04-06T01:00:45.928Z,94.46
2018-04-06T01:01:45.947Z,94.51
2018-04-06T01:02:45.957Z,93.94
2018-04-06T01:03:45.973Z,94.23
2018-04-06T01:04:45.992Z,94.13
2018-04-06T01:05:46.008Z,94.60
2018-04-06T01:06:46.023Z,95.17
2018-04-06T01:07:46.039Z,94.32
2018-04-06T01:08:46.061Z,94.89
2018-04-06T01:09:46.073Z,94.42
2018-04-06T01:10:46.090Z,94.32
2018-04-06T01:11:46.108Z,94.51
2018-04-06T01:12:46.123Z,94.60
2018-04-06T01:13:46.140Z,94.23
2018-04-06T01:14:46.158Z,94.51
2018-04-06T01:15:46.173Z,95.12
2018-04-06T01:16:46.194Z,95.36
2018-04-06T01:17:46.209Z,95.36
2018-04-06T01:18:46.233Z,94.51
2018-04-06T01:19:46.244Z,94.51
2018-04-06T01:20:46.259Z,94.42
2018-04-06T01:21:46.273Z,94.98
2018-04-06T01:22:46.288Z,94.89
2018-04-06T01:23:46.322Z,95.65
2018-04-06T01:24:46.328Z,95.26
2018-04-06T01:25:46.344Z,94.98
2018-04-06T01:26:46.357Z,95.26
2018-04-06T01:27:46.377Z,95.74
2018-04-06T01:28:46.393Z,95.36
2018-04-06T01:29:46.407Z,95.07
2018-04-06T01:30:46.431Z,95.55
2018-04-06T01:31:46.443Z,95.17
2018-04-06T01:32:46.462Z,94.32
2018-04-06T01:33:46.476Z,95.17
2018-04-06T01:34:46.492Z,95.55
2018-04-06T01:35:46.511Z,95.36
2018-04-06T01:36:46.531Z,95.26
2018-04-06T01:37:46.546Z,94.13
2018-04-06T01:38:46.561Z,95.26
2018-04-06T01:39:46.580Z,95.36
2018-04-06T01:40:46.596Z,95.36
2018-04-06T01:41:46.610Z,94.98
2018-04-06T01:42:46.626Z,94.89
2018-04-06T01:43:46.646Z,95.65
2018-04-06T01:44:46.662Z,95.74
2018-04-06T01:45:46.677Z,95.74
2018-04-06T01:46:46.696Z,94.98
2018-04-06T01:47:46.715Z,95.07
2018-04-06T01:48:46.728Z,95.36
2018-04-06T01:49:46.741Z,95.36
2018-04-06T01:50:46.762Z,95.65
2018-04-06T01:51:46.776Z,95.93
2018-04-06T01:52:46.797Z,96.22
2018-04-06T01:53:46.807Z,95.36
2018-04-06T01:54:46.825Z,95.74
2018-04-06T01:55:46.851Z,95.36
2018-04-06T01:56:46.861Z,95.55
2018-04-06T01:57:46.876Z,95.65
2018-04-06T01:58:46.890Z,95.55
2018-04-06T01:59:46.911Z,96.03
2018-04-06T02:00:46.926Z,95.36
2018-04-06T02:01:46.945Z,96.12
2018-04-06T02:02:46.964Z,96.31
2018-04-06T02:03:46.977Z,96.22
2018-04-06T02:04:47.000Z,96.12
2018-04-06T02:05:47.005Z,95.36
2018-04-06T02:06:47.028Z,95.74
2018-04-06T02:07:47.044Z,95.65
2018-04-06T02:08:47.065Z,95.55
2018-04-06T02:09:47.074Z,95.36
2018-04-06T02:10:47.147Z,95.55
2018-04-06T02:11:47.109Z,96.03
2018-04-06T02:12:47.137Z,96.22
2018-04-06T02:13:47.144Z,95.36
2018-04-06T02:14:47.159Z,95.55
2018-04-06T02:15:47.174Z,96.03
2018-04-06T02:16:47.201Z,95.07
2018-04-06T02:17:47.206Z,95.45
2018-04-06T02:18:47.229Z,95.36
2018-04-06T02:19:47.244Z,96.03
2018-04-06T02:20:47.255Z,95.26
2018-04-06T02:21:47.274Z,96.41
2018-04-06T02:22:47.298Z,96.59
2018-04-06T02:23:47.308Z,96.31
2018-04-06T02:24:47.370Z,96.12
2018-04-06T02:25:47.338Z,95.84
2018-04-06T02:26:47.364Z,96.12
2018-04-06T02:27:47.379Z,96.12
2018-04-06T02:28:47.397Z,96.12
2018-04-06T02:29:47.409Z,95.93
2018-04-06T02:30:47.427Z,95.74
2018-04-06T02:31:47.448Z,95.74
2018-04-06T02:32:47.463Z,96.12
2018-04-06T02:33:47.474Z,95.65
2018-04-06T02:34:47.492Z,96.22
2018-04-06T02:35:47.510Z,96.22
2018-04-06T02:36:47.525Z,96.22
2018-04-06T02:37:47.539Z,95.93
2018-04-06T02:38:47.562Z,96.12
2018-04-06T02:39:47.574Z,96.22
2018-04-06T02:40:47.594Z,95.74
2018-04-06T02:41:47.609Z,96.03
2018-04-06T02:42:47.627Z,96.22
2018-04-06T02:43:47.642Z,96.41
2018-04-06T02:44:47.668Z,96.69
2018-04-06T02:45:47.673Z,96.12
2018-04-06T02:46:47.691Z,96.12
2018-04-06T02:47:47.715Z,95.93
2018-04-06T02:48:47.739Z,96.12
2018-04-06T02:49:47.743Z,96.12
2018-04-06T02:50:47.758Z,96.78
2018-04-06T02:51:47.778Z,96.12
2018-04-06T02:52:47.789Z,95.84
2018-04-06T02:53:47.810Z,96.50
2018-04-06T02:54:47.833Z,96.12
2018-04-06T02:55:47.847Z,96.12
2018-04-06T02:56:47.857Z,95.65
2018-04-06T02:57:47.875Z,95.93
2018-04-06T02:58:47.891Z,96.12
2018-04-06T02:59:47.909Z,96.03
2018-04-06T03:00:47.925Z,96.12
2018-04-06T03:01:47.946Z,96.69
2018-04-06T03:02:47.959Z,96.22
2018-04-06T03:03:47.973Z,96.88
2018-04-06T03:04:47.993Z,96.78
2018-04-06T03:05:48.009Z,96.97
2018-04-06T03:06:48.023Z,96.78
2018-04-06T03:07:48.042Z,96.03
2018-04-06T03:08:48.057Z,96.50
2018-04-06T03:09:48.083Z,95.93
2018-04-06T03:10:48.088Z,96.59
2018-04-06T03:11:48.110Z,96.59
2018-04-06T03:12:48.124Z,96.31
2018-04-06T03:13:48.142Z,95.65
2018-04-06T03:14:48.161Z,95.36
2018-04-06T03:15:48.173Z,96.22
2018-04-06T03:16:48.191Z,96.12
2018-04-06T03:17:48.216Z,96.41
2018-04-06T03:18:48.230Z,96.22
2018-04-06T03:19:48.242Z,95.74
2018-04-06T03:20:48.256Z,95.93
2018-04-06T03:21:48.275Z,96.88
2018-04-06T03:22:48.291Z,96.41
2018-04-06T03:23:48.304Z,96.22
2018-04-06T03:24:48.325Z,95.55
2018-04-06T03:25:48.342Z,95.45
2018-04-06T03:26:48.360Z,95.74
2018-04-06T03:27:48.371Z,96.12
2018-04-06T03:28:48.393Z,95.93
2018-04-06T03:29:48.409Z,96.69
2018-04-06T03:30:48.420Z,96.03
2018-04-06T03:31:48.441Z,96.12
2018-04-06T03:32:48.456Z,96.03
2018-04-06T03:33:48.470Z,96.22
2018-04-06T03:34:48.486Z,95.65
2018-04-06T03:35:48.510Z,95.65
2018-04-06T03:36:48.520Z,95.26
2018-04-06T03:37:48.536Z,95.55
2018-04-06T03:38:48.570Z,95.74
2018-04-06T03:39:48.568Z,96.69
2018-04-06T03:40:48.586Z,95.36
2018-04-06T03:41:48.615Z,96.12
2018-04-06T03:42:48.621Z,96.31
2018-04-06T03:43:48.639Z,95.84
2018-04-06T03:44:48.655Z,96.03
2018-04-06T03:45:48.670Z,95.55
2018-04-06T03:46:48.688Z,95.93
2018-04-06T03:47:48.707Z,96.22
2018-04-06T03:48:48.723Z,96.31
2018-04-06T03:49:48.735Z,96.22
2018-04-06T03:50:48.750Z,96.88
2018-04-06T03:51:48.770Z,96.88
2018-04-06T03:52:48.785Z,96.31
2018-04-06T03:53:48.804Z,96.03
2018-04-06T03:54:48.826Z,95.74
2018-04-06T03:55:48.839Z,95.93
2018-04-06T03:56:48.849Z,95.45
2018-04-06T03:57:48.875Z,95.55
2018-04-06T03:58:48.887Z,95.93
2018-04-06T03:59:48.905Z,95.17
2018-04-06T04:00:48.924Z,95.45
2018-04-06T04:01:48.934Z,95.17
2018-04-06T04:02:48.953Z,94.98
2018-04-06T04:03:48.965Z,94.98
2018-04-06T04:04:48.983Z,95.55
2018-04-06T04:05:49.007Z,95.55
2018-04-06T04:06:49.014Z,95.26
2018-04-06T04:07:49.033Z,95.36
2018-04-06T04:08:49.052Z,95.45
2018-04-06T04:09:49.064Z,95.45
2018-04-06T04:10:49.081Z,95.36
2018-04-06T04:11:49.098Z,95.55
2018-04-06T04:12:49.115Z,95.84
2018-04-06T04:13:49.128Z,95.26
2018-04-06T04:14:49.149Z,95.45
2018-04-06T04:15:49.163Z,95.36
2018-04-06T04:16:49.185Z,95.36
2018-04-06T04:17:49.202Z,95.84
2018-04-06T04:18:49.215Z,95.65
2018-04-06T04:19:49.233Z,95.65
2018-04-06T04:20:49.249Z,95.55
2018-04-06T04:21:49.265Z,95.36
2018-04-06T04:22:49.297Z,95.93
2018-04-06T04:23:49.300Z,96.03
2018-04-06T04:24:49.312Z,96.03
2018-04-06T04:25:49.328Z,95.36
2018-04-06T04:26:49.347Z,95.55
2018-04-06T04:27:49.360Z,96.22
2018-04-06T04:28:49.392Z,95.74
2018-04-06T04:29:49.392Z,95.55
2018-04-06T04:30:49.418Z,96.03
2018-04-06T04:31:49.427Z,95.07
2018-04-06T04:32:49.442Z,95.36
2018-04-06T04:33:49.458Z,95.45
2018-04-06T04:34:49.480Z,95.36
2018-04-06T04:35:49.492Z,95.55
2018-04-06T04:36:49.516Z,95.65
2018-04-06T04:37:49.531Z,95.65
2018-04-06T04:38:49.542Z,96.12
2018-04-06T04:39:49.559Z,95.36
2018-04-06T04:40:49.580Z,94.51
2018-04-06T04:41:49.592Z,95.07
2018-04-06T04:42:49.606Z,95.07
2018-04-06T04:43:49.626Z,94.98
2018-04-06T04:44:49.651Z,94.23
2018-04-06T04:45:49.657Z,94.98
2018-04-06T04:46:49.678Z,95.36
2018-04-06T04:47:49.707Z,95.22
2018-04-06T04:48:49.708Z,95.55
2018-04-06T04:49:49.726Z,95.69
2018-04-06T04:50:49.748Z,96.12
2018-04-06T04:51:49.760Z,95.65
2018-04-06T04:52:49.776Z,95.55
2018-04-06T04:53:49.791Z,95.84
2018-04-06T04:54:49.810Z,95.45
2018-04-06T04:55:49.826Z,95.65
2018-04-06T04:56:49.836Z,95.65
2018-04-06T04:57:49.865Z,95.50
2018-04-06T04:58:49.875Z,95.50
2018-04-06T04:59:49.887Z,95.60
2018-04-06T05:00:49.905Z,95.69
2018-04-06T05:01:49.920Z,95.03
2018-04-06T05:02:49.936Z,95.60
2018-04-06T05:03:49.955Z,95.12
2018-04-06T05:04:49.971Z,96.17
2018-04-06T05:05:49.993Z,95.84
2018-04-06T05:06:50.005Z,95.79
2018-04-06T05:07:50.022Z,94.84
2018-04-06T05:08:50.040Z,95.74
2018-04-06T05:09:50.058Z,95.55
2018-04-06T05:10:50.069Z,95.60
2018-04-06T05:11:50.090Z,95.74
2018-04-06T05:12:50.099Z,95.65
2018-04-06T05:13:50.119Z,95.26
2018-04-06T05:14:50.138Z,96.03
2018-04-06T05:15:50.155Z,94.93
2018-04-06T05:16:50.173Z,95.12
2018-04-06T05:17:50.184Z,95.45
2018-04-06T05:18:50.204Z,95.88
2018-04-06T05:19:50.219Z,95.65
2018-04-06T05:20:50.234Z,95.88
2018-04-06T05:21:50.254Z,96.03
2018-04-06T05:22:50.264Z,95.03
2018-04-06T05:23:50.291Z,95.17
2018-04-06T05:24:50.301Z,95.45
2018-04-06T05:25:50.319Z,95.12
2018-04-06T05:26:50.335Z,95.65
2018-04-06T05:27:50.349Z,95.50
2018-04-06T05:28:50.372Z,96.12
2018-04-06T05:29:50.386Z,95.36
2018-04-06T05:30:50.397Z,95.36
2018-04-06T05:31:50.419Z,96.22
2018-04-06T05:32:50.437Z,96.07
2018-04-06T05:33:50.445Z,96.03
2018-04-06T05:34:50.465Z,95.65
2018-04-06T05:35:50.479Z,95.26
2018-04-06T05:36:50.498Z,95.84
2018-04-06T05:37:50.516Z,95.36
2018-04-06T05:38:50.580Z,95.93
2018-04-06T05:39:50.546Z,95.55
2018-04-06T05:40:50.566Z,95.74
2018-04-06T05:41:50.579Z,95.45
2018-04-06T05:42:50.596Z,95.26
2018-04-06T05:43:50.613Z,95.17
2018-04-06T05:44:50.634Z,95.17
2018-04-06T05:45:50.646Z,95.55
2018-04-06T05:46:50.666Z,95.65
2018-04-06T05:47:50.677Z,96.12
2018-04-06T05:48:50.692Z,94.89
2018-04-06T05:49:50.714Z,95.45
2018-04-06T05:50:50.730Z,95.26
2018-04-06T05:51:50.751Z,95.93
2018-04-06T05:52:50.765Z,95.45
2018-04-06T05:53:50.782Z,95.26
2018-04-06T05:54:50.797Z,95.36
2018-04-06T05:55:50.817Z,95.45
2018-04-06T05:56:50.832Z,95.07
2018-04-06T05:57:50.848Z,94.32
2018-04-06T05:58:50.863Z,95.07
2018-04-06T05:59:50.882Z,95.26
2018-04-06T06:00:50.896Z,94.98
2018-04-06T06:01:50.916Z,94.42
2018-04-06T06:02:50.927Z,94.51
2018-04-06T06:03:50.946Z,95.07
2018-04-06T06:04:50.963Z,94.51
2018-04-06T06:05:50.977Z,94.04
2018-04-06T06:06:51.004Z,94.32
2018-04-06T06:07:51.018Z,94.23
2018-04-06T06:08:51.031Z,94.42
2018-04-06T06:09:51.054Z,94.32
2018-04-06T06:10:51.065Z,93.37
2018-04-06T06:11:51.081Z,93.94
2018-04-06T06:12:51.100Z,93.65
2018-04-06T06:13:51.118Z,92.99
2018-04-06T06:14:51.135Z,93.46
2018-04-06T06:15:51.152Z,93.37
2018-04-06T06:16:51.171Z,93.94
2018-04-06T06:17:51.204Z,93.84
2018-04-06T06:18:51.195Z,93.65
2018-04-06T06:19:51.213Z,94.23
2018-04-06T06:20:51.235Z,94.23
2018-04-06T06:21:51.248Z,93.65
2018-04-06T06:22:51.267Z,93.84
2018-04-06T06:23:51.285Z,93.75
2018-04-06T06:24:51.321Z,94.04
2018-04-06T06:25:51.316Z,94.13
2018-04-06T06:26:51.334Z,94.32
2018-04-06T06:27:51.355Z,93.75
2018-04-06T06:28:51.369Z,93.65
2018-04-06T06:29:51.385Z,94.51
2018-04-06T06:30:51.400Z,94.70
2018-04-06T06:31:51.418Z,94.32
2018-04-06T06:32:51.434Z,94.60
2018-04-06T06:33:51.449Z,93.27
2018-04-06T06:34:51.469Z,93.65
2018-04-06T06:35:51.489Z,93.65
2018-04-06T06:36:51.558Z,92.99
2018-04-06T06:37:51.519Z,93.37
2018-04-06T06:38:51.535Z,93.46
2018-04-06T06:39:51.554Z,93.75
2018-04-06T06:40:51.577Z,93.75
2018-04-06T06:41:51.589Z,93.75
2018-04-06T06:42:51.633Z,93.18
2018-04-06T06:43:51.618Z,92.80
2018-04-06T06:44:51.642Z,93.46
2018-04-06T06:45:51.654Z,93.65
2018-04-06T06:46:51.677Z,92.71
2018-04-06T06:47:51.689Z,92.99
2018-04-06T06:48:51.712Z,93.70
2018-04-06T06:49:51.725Z,93.23
2018-04-06T06:50:51.743Z,92.76
2018-04-06T06:51:51.763Z,93.04
2018-04-06T06:52:51.778Z,92.94
2018-04-06T06:53:51.795Z,92.09
2018-04-06T06:54:51.809Z,91.90
2018-04-06T06:55:51.823Z,91.80
2018-04-06T06:56:51.847Z,92.38
2018-04-06T06:57:51.857Z,92.94
2018-04-06T06:58:51.882Z,92.85
2018-04-06T06:59:51.902Z,92.18
2018-04-06T07:00:51.910Z,92.28
2018-04-06T07:01:51.928Z,92.18
2018-04-06T07:02:51.946Z,92.18
2018-04-06T07:03:51.971Z,91.33
2018-04-06T07:04:51.992Z,91.14
2018-04-06T07:05:52.005Z,91.52
2018-04-06T07:06:52.017Z,92.47
2018-04-06T07:07:52.028Z,91.99
2018-04-06T07:08:52.048Z,91.42
2018-04-06T07:09:52.066Z,91.14
2018-04-06T07:10:52.084Z,90.48
2018-04-06T07:11:52.103Z,91.24
2018-04-06T07:12:52.124Z,91.14
2018-04-06T07:13:52.143Z,91.24
2018-04-06T07:14:52.154Z,91.05
2018-04-06T07:15:52.172Z,90.29
2018-04-06T07:16:52.192Z,90.19
2018-04-06T07:17:52.208Z,90.57
2018-04-06T07:18:52.226Z,90.38
2018-04-06T07:19:52.246Z,90.19
2018-04-06T07:20:52.256Z,89.81
2018-04-06T07:21:52.277Z,89.48
2018-04-06T07:22:52.305Z,90.62
2018-04-06T07:23:52.316Z,90.14
2018-04-06T07:24:52.328Z,89.10
2018-04-06T07:25:52.346Z,89.10
2018-04-06T07:26:52.368Z,89.76
2018-04-06T07:27:52.381Z,89.10
2018-04-06T07:28:52.402Z,88.62
2018-04-06T07:29:52.418Z,88.43
2018-04-06T07:30:52.449Z,88.81
2018-04-06T07:31:52.456Z,88.15
2018-04-06T07:32:52.474Z,88.81
2018-04-06T07:33:52.491Z,88.15
2018-04-06T07:34:52.515Z,87.96
2018-04-06T07:35:52.529Z,87.30
2018-04-06T07:36:52.542Z,86.72
2018-04-06T07:37:52.654Z,86.72
2018-04-06T07:38:52.595Z,86.63
2018-04-06T07:39:52.622Z,87.01
2018-04-06T07:40:52.764Z,87.49
2018-04-06T07:41:52.829Z,87.39
2018-04-06T07:42:52.671Z,87.30
2018-04-06T07:43:52.690Z,87.01
2018-04-06T07:44:52.696Z,86.49
2018-04-06T07:45:52.730Z,86.35
2018-04-06T07:46:52.940Z,87.43
2018-04-06T07:47:52.955Z,87.43
2018-04-06T07:48:52.908Z,86.01
2018-04-06T07:49:52.776Z,85.53
2018-04-06T07:50:52.836Z,85.44
2018-04-06T07:51:53.041Z,85.44
2018-04-06T07:52:53.036Z,85.82
2018-04-06T07:53:52.850Z,85.91
2018-04-06T07:54:52.870Z,86.58
2018-04-06T07:55:52.891Z,86.39
2018-04-06T07:56:52.908Z,85.63
2018-04-06T07:57:52.926Z,84.97
2018-04-06T07:58:52.945Z,85.44
2018-04-06T07:59:52.962Z,85.44
2018-04-06T08:00:52.987Z,85.44
2018-04-06T08:01:52.997Z,84.97
2018-04-06T08:02:53.018Z,84.87
2018-04-06T08:03:53.037Z,84.49
2018-04-06T08:04:53.059Z,84.21
2018-04-06T08:05:53.080Z,84.49
2018-04-06T08:06:53.094Z,84.01
2018-04-06T08:07:53.108Z,83.45
2018-04-06T08:08:53.126Z,82.97
2018-04-06T08:09:53.144Z,83.16
2018-04-06T08:10:53.175Z,82.88
2018-04-06T08:11:53.178Z,83.64
2018-04-06T08:12:53.203Z,83.92
2018-04-06T08:13:53.220Z,83.16
2018-04-06T08:14:53.238Z,83.54
2018-04-06T08:15:53.255Z,83.16
2018-04-06T08:16:53.279Z,83.54
2018-04-06T08:17:53.294Z,82.69
2018-04-06T08:18:53.312Z,82.40
2018-04-06T08:19:53.329Z,82.78
2018-04-06T08:20:53.350Z,82.50
2018-04-06T08:21:53.370Z,82.69
2018-04-06T08:22:53.389Z,82.50
2018-04-06T08:23:53.412Z,82.03
2018-04-06T08:24:53.475Z,81.97
2018-04-06T08:25:53.444Z,82.03
2018-04-06T08:26:53.463Z,81.74
2018-04-06T08:27:53.489Z,81.49
2018-04-06T08:28:53.499Z,81.17
2018-04-06T08:29:53.519Z,82.07
2018-04-06T08:30:53.540Z,82.07
2018-04-06T08:31:53.559Z,81.74
2018-04-06T08:32:53.581Z,81.21
2018-04-06T08:33:53.597Z,81.40
2018-04-06T08:34:53.640Z,81.49
2018-04-06T08:35:53.637Z,81.30
2018-04-06T08:36:53.655Z,80.07
2018-04-06T08:37:53.677Z,79.03
2018-04-06T08:38:53.697Z,78.83
2018-04-06T08:39:53.739Z,78.08
2018-04-06T08:40:53.735Z,77.98
2018-04-06T08:41:53.751Z,79.79
2018-04-06T08:42:53.768Z,79.69
2018-04-06T08:43:53.783Z,79.60
2018-04-06T08:44:53.810Z,79.12
2018-04-06T08:45:53.827Z,77.98
2018-04-06T08:46:53.840Z,77.60
2018-04-06T08:47:53.862Z,77.70
2018-04-06T08:48:53.883Z,76.84
2018-04-06T08:49:53.902Z,77.60
2018-04-06T08:50:53.927Z,77.89
2018-04-06T08:51:53.937Z,77.83
2018-04-06T08:52:53.960Z,78.36
2018-04-06T08:53:53.981Z,78.27
2018-04-06T08:54:53.997Z,78.36
2018-04-06T08:55:54.019Z,78.83
2018-04-06T08:56:54.037Z,80.58
2018-04-06T08:57:54.053Z,80.49
2018-04-06T08:58:54.074Z,79.06
2018-04-06T08:59:54.092Z,78.59
2018-04-06T09:00:54.114Z,77.83
2018-04-06T09:01:54.135Z,76.31
2018-04-06T09:02:54.152Z,75.45
2018-04-06T09:03:54.166Z,75.36
2018-04-06T09:04:54.191Z,75.93
2018-04-06T09:05:54.243Z,75.55
2018-04-06T09:06:54.228Z,75.36
2018-04-06T09:07:54.246Z,75.93
2018-04-06T09:08:54.284Z,75.93
2018-04-06T09:09:54.284Z,76.40
2018-04-06T09:10:54.327Z,76.21
2018-04-06T09:11:54.342Z,75.26
2018-04-06T09:12:54.337Z,74.69
2018-04-06T09:13:54.365Z,74.60
2018-04-06T09:14:54.385Z,74.51
2018-04-06T09:15:54.405Z,75.07
2018-04-06T09:16:54.420Z,75.64
2018-04-06T09:17:54.445Z,76.03
2018-04-06T09:18:54.466Z,76.88
2018-04-06T09:19:54.487Z,77.26
2018-04-06T09:20:54.502Z,75.64
2018-04-06T09:21:54.521Z,75.93
2018-04-06T09:22:54.538Z,75.84
2018-04-06T09:23:54.560Z,75.17
2018-04-06T09:24:54.574Z,75.74
2018-04-06T09:25:54.602Z,74.92
2018-04-06T09:26:54.618Z,74.12
2018-04-06T09:27:54.636Z,73.49
2018-04-06T09:28:54.652Z,72.92
2018-04-06T09:29:54.676Z,72.45
2018-04-06T09:30:54.695Z,72.79
2018-04-06T09:31:54.718Z,73.59
2018-04-06T09:32:54.733Z,74.16
2018-04-06T09:33:54.754Z,74.63
2018-04-06T09:34:54.776Z,74.63
2018-04-06T09:35:54.792Z,73.59
2018-04-06T09:36:54.814Z,74.07
2018-04-06T09:37:54.832Z,74.35
2018-04-06T09:38:54.852Z,74.07
2018-04-06T09:39:54.877Z,73.40
2018-04-06T09:40:54.893Z,72.74
2018-04-06T09:41:54.909Z,72.45
2018-04-06T09:42:54.930Z,71.78
2018-04-06T09:43:54.958Z,71.88
2018-04-06T09:44:54.973Z,71.59
2018-04-06T09:45:54.994Z,71.88
2018-04-06T09:46:55.016Z,72.64
2018-04-06T09:47:55.038Z,71.88
2018-04-06T09:48:55.052Z,69.60
2018-04-06T09:49:55.070Z,70.26
2018-04-06T09:50:55.088Z,70.83
2018-04-06T09:51:55.111Z,71.59
2018-04-06T09:52:55.133Z,71.59
2018-04-06T09:53:55.156Z,70.83
2018-04-06T09:54:55.172Z,70.74
2018-04-06T09:55:55.197Z,70.20
2018-04-06T09:56:55.220Z,70.10
2018-04-06T09:57:55.230Z,70.20
2018-04-06T09:58:55.254Z,70.10
2018-04-06T09:59:55.273Z,70.10
2018-04-06T10:00:55.299Z,70.30
2018-04-06T10:01:55.316Z,70.49
2018-04-06T10:02:55.339Z,69.54
2018-04-06T10:03:55.355Z,68.87
2018-04-06T10:04:55.373Z,67.92
2018-04-06T10:05:55.395Z,67.63
2018-04-06T10:06:55.415Z,67.35
2018-04-06T10:07:55.439Z,67.35
2018-04-06T10:08:55.459Z,67.25
2018-04-06T10:09:55.478Z,66.59
2018-04-06T10:10:55.495Z,66.78
2018-04-06T10:11:55.516Z,66.68
2018-04-06T10:12:55.533Z,66.68
2018-04-06T10:13:55.558Z,65.83
2018-04-06T10:14:55.575Z,65.25
2018-04-06T10:15:55.598Z,66.11
2018-04-06T10:16:55.619Z,65.95
2018-04-06T10:17:55.651Z,64.40
2018-04-06T10:18:55.660Z,63.76
2018-04-06T10:19:55.679Z,62.40
2018-04-06T10:20:55.708Z,63.48
2018-04-06T10:21:55.721Z,63.57
2018-04-06T10:22:55.741Z,63.48
2018-04-06T10:23:55.758Z,65.00
2018-04-06T10:24:55.780Z,65.48
2018-04-06T10:25:55.798Z,64.62
2018-04-06T10:26:55.823Z,64.15
2018-04-06T10:27:55.839Z,63.39
2018-04-06T10:28:55.870Z,62.62
2018-04-06T10:29:55.883Z,63.20
2018-04-06T10:30:55.902Z,63.39
2018-04-06T10:31:55.928Z,61.29
2018-04-06T10:32:55.942Z,60.53
2018-04-06T10:33:55.961Z,61.00
2018-04-06T10:34:55.985Z,60.72
2018-04-06T10:35:56.006Z,61.67
2018-04-06T10:36:56.022Z,63.39
2018-04-06T10:37:56.046Z,62.53
2018-04-06T10:38:56.069Z,63.51
2018-04-06T10:39:56.090Z,64.47
2018-04-06T10:40:56.110Z,62.94
2018-04-06T10:41:56.130Z,60.08
2018-04-06T10:42:56.150Z,60.85
2018-04-06T10:43:56.172Z,57.89
2018-04-06T10:44:56.204Z,57.99
2018-04-06T10:45:56.211Z,57.60
2018-04-06T10:46:56.230Z,56.87
2018-04-06T10:47:56.255Z,57.16
2018-04-06T10:48:56.272Z,57.16
2018-04-06T10:49:56.295Z,58.02
2018-04-06T10:50:56.314Z,57.92
2018-04-06T10:51:56.343Z,57.95
2018-04-06T10:52:56.356Z,55.95
2018-04-06T10:53:56.380Z,55.95
2018-04-06T10:54:56.396Z,56.90
2018-04-06T10:55:56.431Z,56.24
2018-04-06T10:56:56.449Z,56.46
2018-04-06T10:57:56.466Z,56.84
2018-04-06T10:58:56.487Z,54.36
2018-04-06T10:59:56.507Z,53.21
2018-04-06T11:00:56.531Z,51.68
2018-04-06T11:01:56.550Z,51.71
2018-04-06T11:02:56.574Z,51.26
2018-04-06T11:03:56.602Z,50.21
2018-04-06T11:04:56.625Z,49.16
2018-04-06T11:05:56.647Z,47.39
2018-04-06T11:06:56.666Z,44.50
2018-04-06T11:07:56.699Z,42.65
2018-04-06T11:08:56.725Z,40.05
2018-04-06T11:09:56.749Z,36.72
2018-04-06T11:10:56.770Z,33.40
2018-04-06T11:11:56.794Z,29.87
2018-04-06T11:12:56.832Z,29.50
2018-04-06T11:13:56.853Z,28.18
2018-04-06T11:14:56.884Z,28.58
2018-04-06T11:15:56.914Z,26.84
2018-04-06T11:16:56.939Z,25.21
2018-04-06T11:17:56.964Z,25.31
2018-04-06T11:18:56.992Z,24.66
2018-04-06T11:19:57.024Z,23.97
2018-04-06T11:20:57.049Z,24.43
2018-04-06T11:21:57.080Z,24.91
2018-04-06T11:22:57.166Z,23.68
2018-04-06T11:23:57.140Z,23.49
2018-04-06T11:24:57.170Z,23.87
2018-04-06T11:25:57.199Z,23.12
2018-04-06T11:26:57.229Z,22.24
2018-04-06T11:27:57.260Z,22.63
2018-04-06T11:28:57.292Z,22.91
2018-04-06T11:29:57.329Z,23.46
2018-04-06T11:30:57.359Z,23.85
2018-04-06T11:31:57.389Z,24.23
2018-04-06T11:32:57.426Z,22.43
2018-04-06T11:33:57.453Z,21.28
2018-04-06T11:34:57.483Z,20.72
2018-04-06T11:35:57.516Z,19.19
2018-04-06T11:36:57.545Z,18.41
2018-04-06T11:37:57.584Z,17.76
2018-04-06T11:38:57.609Z,18.53
2018-04-06T11:39:57.644Z,19.20
2018-04-06T11:40:57.680Z,19.85
2018-04-06T11:41:57.705Z,19.37
2018-04-06T11:42:57.747Z,19.38
2018-04-06T11:43:57.775Z,18.71
2018-04-06T11:44:57.814Z,18.51
2018-04-06T11:45:57.839Z,18.33
2018-04-06T11:46:57.872Z,18.23
2018-04-06T11:47:57.908Z,20.06
2018-04-06T11:48:57.939Z,19.87
2018-04-06T11:49:57.975Z,18.63
2018-04-06T11:50:58.005Z,17.95
2018-04-06T11:51:58.043Z,18.35
2018-04-06T11:52:58.075Z,17.38
2018-04-06T11:53:58.110Z,17.38
2018-04-06T11:54:58.143Z,17.00
2018-04-06T11:55:58.180Z,16.31
2018-04-06T11:56:58.221Z,16.42
2018-04-06T11:57:58.247Z,16.43
2018-04-06T11:58:58.286Z,15.95
2018-04-06T11:59:58.320Z,15.84
2018-04-06T12:00:58.349Z,16.71
2018-04-06T12:01:58.387Z,16.21
2018-04-06T12:02:58.425Z,17.28
2018-04-06T12:03:58.457Z,17.56
2018-04-06T12:04:58.492Z,18.23
2018-04-06T12:05:58.528Z,18.32
2018-04-06T12:06:58.574Z,18.49
2018-04-06T12:07:58.602Z,20.21
2018-04-06T12:08:58.632Z,21.66
2018-04-06T12:09:58.671Z,21.55
2018-04-06T12:10:58.704Z,22.13
2018-04-06T12:11:58.748Z,21.39
2018-04-06T12:12:58.772Z,20.34
2018-04-06T12:13:58.807Z,18.52
2018-04-06T12:14:58.846Z,18.15
2018-04-06T12:15:58.880Z,17.10
2018-04-06T12:16:58.915Z,16.30
2018-04-06T12:17:58.962Z,17.18
2018-04-06T12:18:58.982Z,16.86
2018-04-06T12:19:59.021Z,18.41
2018-04-06T12:20:59.049Z,18.02
2018-04-06T12:21:59.095Z,18.00
2018-04-06T12:22:59.127Z,19.53
2018-04-06T12:23:59.161Z,19.83
2018-04-06T12:24:59.191Z,19.45
2018-04-06T12:25:59.231Z,19.46
2018-04-06T12:26:59.266Z,18.80
2018-04-06T12:27:59.304Z,17.83
2018-04-06T12:28:59.336Z,17.16
2018-04-06T12:29:59.378Z,16.31
2018-04-06T12:30:59.411Z,16.41
2018-04-06T12:31:59.442Z,15.34
2018-04-06T12:32:59.481Z,14.48
2018-04-06T12:33:59.518Z,13.90
2018-04-06T12:34:59.558Z,13.99
2018-04-06T12:35:59.593Z,14.01
2018-04-06T12:36:59.625Z,13.22
2018-04-06T12:37:59.662Z,13.72
2018-04-06T12:38:59.705Z,12.85
2018-04-06T12:39:59.739Z,12.48
2018-04-06T12:40:59.786Z,11.90
2018-04-06T12:41:59.810Z,11.23
2018-04-06T12:42:59.847Z,10.63
2018-04-06T12:43:59.891Z,11.88
2018-04-06T12:44:59.928Z,11.88
2018-04-06T12:45:59.962Z,11.21
2018-04-06T12:47:00.000Z,9.84
2018-04-06T12:48:00.035Z,9.56
2018-04-06T12:49:00.080Z,9.37
2018-04-06T12:50:00.116Z,11.49
2018-04-06T12:51:00.160Z,11.20
2018-04-06T12:52:00.192Z,11.77
2018-04-06T12:53:00.231Z,11.56